sensor_id;sensor_type;location;lat;lon;timestamp;pressure;altitude;pressure_sealevel;temperature;humidity
10618;BME280;5356;43.526;26.534;2023-06-14T00:00:39;98806.22;;;18.47;100.00
10618;BME280;5356;43.526;26.534;2023-06-14T00:03:07;98798.66;;;18.49;100.00
10618;BME280;5356;43.526;26.534;2023-06-14T00:05:36;98794.84;;;18.50;100.00
10618;BME280;5356;43.526;26.534;2023-06-14T00:08:08;98799.22;;;18.46;100.00
10618;BME280;5356;43.526;26.534;2023-06-14T00:10:37;98798.94;;;18.43;100.00
10618;BME280;5356;43.526;26.534;2023-06-14T00:13:04;98789.56;;;18.40;100.00
10618;BME280;5356;43.526;26.534;2023-06-14T00:15:31;98800.06;;;18.42;100.00
10618;BME280;5356;43.526;26.534;2023-06-14T00:17:57;98798.72;;;18.39;100.00
10618;BME280;5356;43.526;26.534;2023-06-14T00:20:26;98799.34;;;18.26;100.00
10618;BME280;5356;43.526;26.534;2023-06-14T00:22:52;98800.53;;;18.09;100.00
10618;BME280;5356;43.526;26.534;2023-06-14T00:25:19;98803.84;;;17.96;100.00
10618;BME280;5356;43.526;26.534;2023-06-14T00:27:44;98799.00;;;17.88;100.00
10618;BME280;5356;43.526;26.534;2023-06-14T00:30:11;98801.47;;;17.79;100.00
10618;BME280;5356;43.526;26.534;2023-06-14T00:32:37;98796.94;;;17.69;100.00
10618;BME280;5356;43.526;26.534;2023-06-14T00:35:02;98798.28;;;17.67;100.00
10618;BME280;5356;43.526;26.534;2023-06-14T00:37:28;98797.19;;;17.78;100.00
10618;BME280;5356;43.526;26.534;2023-06-14T00:39:53;98793.38;;;17.74;100.00
10618;BME280;5356;43.526;26.534;2023-06-14T00:42:25;98785.09;;;17.60;100.00
10618;BME280;5356;43.526;26.534;2023-06-14T00:44:51;98782.94;;;17.57;100.00
10618;BME280;5356;43.526;26.534;2023-06-14T00:47:17;98777.06;;;17.50;100.00
10618;BME280;5356;43.526;26.534;2023-06-14T00:49:45;98782.16;;;17.46;100.00
10618;BME280;5356;43.526;26.534;2023-06-14T00:52:11;98774.94;;;17.47;100.00
10618;BME280;5356;43.526;26.534;2023-06-14T00:54:39;98772.47;;;17.56;100.00
10618;BME280;5356;43.526;26.534;2023-06-14T00:57:05;98772.72;;;17.59;100.00
10618;BME280;5356;43.526;26.534;2023-06-14T00:59:31;98782.91;;;17.67;100.00
10618;BME280;5356;43.526;26.534;2023-06-14T01:01:56;98776.19;;;17.70;100.00
10618;BME280;5356;43.526;26.534;2023-06-14T01:04:22;98776.72;;;17.72;100.00
10618;BME280;5356;43.526;26.534;2023-06-14T01:07:10;98776.97;;;17.70;100.00
10618;BME280;5356;43.526;26.534;2023-06-14T01:12:48;98774.09;;;17.51;100.00
10618;BME280;5356;43.526;26.534;2023-06-14T01:15:16;98772.78;;;17.44;100.00
10618;BME280;5356;43.526;26.534;2023-06-14T01:17:44;98766.56;;;17.43;100.00
10618;BME280;5356;43.526;26.534;2023-06-14T01:20:14;98775.75;;;17.42;100.00
10618;BME280;5356;43.526;26.534;2023-06-14T01:22:54;98769.03;;;17.35;100.00
10618;BME280;5356;43.526;26.534;2023-06-14T01:25:21;98763.16;;;17.22;100.00
10618;BME280;5356;43.526;26.534;2023-06-14T01:27:53;98770.13;;;17.23;100.00
10618;BME280;5356;43.526;26.534;2023-06-14T01:30:22;98766.38;;;17.30;100.00
10618;BME280;5356;43.526;26.534;2023-06-14T01:32:49;98773.91;;;17.33;100.00
10618;BME280;5356;43.526;26.534;2023-06-14T01:35:15;98774.44;;;17.30;100.00
10618;BME280;5356;43.526;26.534;2023-06-14T01:37:42;98769.31;;;17.28;100.00
10618;BME280;5356;43.526;26.534;2023-06-14T01:40:09;98772.03;;;17.23;100.00
10618;BME280;5356;43.526;26.534;2023-06-14T01:42:37;98774.16;;;17.26;100.00
10618;BME280;5356;43.526;26.534;2023-06-14T01:45:07;98786.56;;;17.22;100.00
10618;BME280;5356;43.526;26.534;2023-06-14T01:47:34;98780.38;;;17.21;100.00
10618;BME280;5356;43.526;26.534;2023-06-14T01:50:02;98779.31;;;17.17;100.00
10618;BME280;5356;43.526;26.534;2023-06-14T01:52:27;98792.50;;;17.14;100.00
10618;BME280;5356;43.526;26.534;2023-06-14T01:54:53;98790.06;;;17.22;100.00
10618;BME280;5356;43.526;26.534;2023-06-14T01:57:18;98793.28;;;17.30;100.00
10618;BME280;5356;43.526;26.534;2023-06-14T01:59:45;98783.56;;;17.34;100.00
10618;BME280;5356;43.526;26.534;2023-06-14T02:02:13;98793.00;;;17.36;100.00
10618;BME280;5356;43.526;26.534;2023-06-14T02:04:39;98787.88;;;17.35;100.00
10618;BME280;5356;43.526;26.534;2023-06-14T02:07:05;98789.81;;;17.24;100.00
10618;BME280;5356;43.526;26.534;2023-06-14T02:09:30;98788.44;;;17.26;100.00
10618;BME280;5356;43.526;26.534;2023-06-14T02:11:56;98796.00;;;17.19;100.00
10618;BME280;5356;43.526;26.534;2023-06-14T02:14:21;98799.25;;;17.11;100.00
10618;BME280;5356;43.526;26.534;2023-06-14T02:16:47;98800.34;;;17.05;100.00
10618;BME280;5356;43.526;26.534;2023-06-14T02:19:18;98795.75;;;17.05;100.00
10618;BME280;5356;43.526;26.534;2023-06-14T02:21:44;98791.72;;;17.03;100.00
10618;BME280;5356;43.526;26.534;2023-06-14T02:24:09;98804.66;;;16.96;100.00
10618;BME280;5356;43.526;26.534;2023-06-14T02:26:35;98800.63;;;16.93;100.00
10618;BME280;5356;43.526;26.534;2023-06-14T02:29:03;98802.75;;;16.86;100.00
10618;BME280;5356;43.526;26.534;2023-06-14T02:31:28;98803.84;;;16.80;100.00
10618;BME280;5356;43.526;26.534;2023-06-14T02:33:54;98802.50;;;16.82;100.00
10618;BME280;5356;43.526;26.534;2023-06-14T02:36:19;98801.41;;;16.83;100.00
10618;BME280;5356;43.526;26.534;2023-06-14T02:38:45;98812.19;;;16.94;100.00
10618;BME280;5356;43.526;26.534;2023-06-14T02:41:12;98801.41;;;16.99;100.00
10618;BME280;5356;43.526;26.534;2023-06-14T02:43:37;98808.94;;;17.02;100.00
10618;BME280;5356;43.526;26.534;2023-06-14T02:46:03;98798.97;;;17.02;100.00
10618;BME280;5356;43.526;26.534;2023-06-14T02:48:29;98807.31;;;17.01;100.00
10618;BME280;5356;43.526;26.534;2023-06-14T02:50:55;98806.78;;;17.04;100.00
10618;BME280;5356;43.526;26.534;2023-06-14T02:53:21;98814.31;;;16.97;100.00
10618;BME280;5356;43.526;26.534;2023-06-14T02:55:47;98815.94;;;16.93;100.00
10618;BME280;5356;43.526;26.534;2023-06-14T02:58:14;98812.19;;;16.94;100.00
10618;BME280;5356;43.526;26.534;2023-06-14T03:00:39;98817.03;;;16.97;100.00
10618;BME280;5356;43.526;26.534;2023-06-14T03:03:06;98827.25;;;17.00;100.00
10618;BME280;5356;43.526;26.534;2023-06-14T03:05:46;98830.72;;;17.00;100.00
10618;BME280;5356;43.526;26.534;2023-06-14T03:08:13;98823.47;;;17.06;100.00
10618;BME280;5356;43.526;26.534;2023-06-14T03:10:47;98830.47;;;17.07;100.00
10618;BME280;5356;43.526;26.534;2023-06-14T03:13:14;98833.16;;;17.07;100.00
10618;BME280;5356;43.526;26.534;2023-06-14T03:15:41;98827.50;;;17.14;100.00
10618;BME280;5356;43.526;26.534;2023-06-14T03:18:09;98829.38;;;17.18;100.00
10618;BME280;5356;43.526;26.534;2023-06-14T03:20:35;98837.97;;;17.20;100.00
10618;BME280;5356;43.526;26.534;2023-06-14T03:23:02;98833.69;;;17.19;100.00
10618;BME280;5356;43.526;26.534;2023-06-14T03:25:28;98833.94;;;17.18;100.00
10618;BME280;5356;43.526;26.534;2023-06-14T03:27:58;98837.44;;;17.23;100.00
10618;BME280;5356;43.526;26.534;2023-06-14T03:30:23;98843.09;;;17.27;100.00
10618;BME280;5356;43.526;26.534;2023-06-14T03:32:49;98844.41;;;17.35;100.00
10618;BME280;5356;43.526;26.534;2023-06-14T03:35:17;98840.91;;;17.34;100.00
10618;BME280;5356;43.526;26.534;2023-06-14T03:37:46;98848.44;;;17.37;100.00
10618;BME280;5356;43.526;26.534;2023-06-14T03:40:13;98846.00;;;17.41;100.00
10618;BME280;5356;43.526;26.534;2023-06-14T03:42:39;98844.41;;;17.40;100.00
10618;BME280;5356;43.526;26.534;2023-06-14T03:45:06;98848.69;;;17.46;100.00
10618;BME280;5356;43.526;26.534;2023-06-14T03:47:32;98853.53;;;17.54;100.00
10618;BME280;5356;43.526;26.534;2023-06-14T03:49:58;98858.91;;;17.49;100.00
10618;BME280;5356;43.526;26.534;2023-06-14T03:52:23;98862.16;;;17.46;100.00
10618;BME280;5356;43.526;26.534;2023-06-14T03:54:50;98858.38;;;17.52;100.00
10618;BME280;5356;43.526;26.534;2023-06-14T03:57:16;98866.44;;;17.52;100.00
10618;BME280;5356;43.526;26.534;2023-06-14T03:59:42;98869.97;;;17.47;100.00
10618;BME280;5356;43.526;26.534;2023-06-14T04:02:07;98868.38;;;17.41;100.00
10618;BME280;5356;43.526;26.534;2023-06-14T04:04:35;98865.41;;;17.53;100.00
10618;BME280;5356;43.526;26.534;2023-06-14T04:07:00;98869.13;;;17.67;100.00
10618;BME280;5356;43.526;26.534;2023-06-14T04:09:29;98874.47;;;17.78;100.00
10618;BME280;5356;43.526;26.534;2023-06-14T04:11:55;98866.69;;;17.81;100.00
10618;BME280;5356;43.526;26.534;2023-06-14T04:14:21;98863.44;;;17.89;100.00
10618;BME280;5356;43.526;26.534;2023-06-14T04:16:47;98863.13;;;17.96;100.00
10618;BME280;5356;43.526;26.534;2023-06-14T04:19:13;98866.88;;;18.00;100.00
10618;BME280;5356;43.526;26.534;2023-06-14T04:21:39;98867.69;;;18.01;100.00
10618;BME280;5356;43.526;26.534;2023-06-14T04:24:05;98872.25;;;18.00;100.00
10618;BME280;5356;43.526;26.534;2023-06-14T04:26:32;98880.31;;;18.10;100.00
10618;BME280;5356;43.526;26.534;2023-06-14T04:28:59;98874.38;;;18.13;100.00
10618;BME280;5356;43.526;26.534;2023-06-14T04:31:29;98873.28;;;18.14;100.00
10618;BME280;5356;43.526;26.534;2023-06-14T04:33:55;98872.13;;;18.26;100.00
10618;BME280;5356;43.526;26.534;2023-06-14T04:36:21;98873.69;;;18.37;100.00
10618;BME280;5356;43.526;26.534;2023-06-14T04:38:47;98869.38;;;18.41;100.00
10618;BME280;5356;43.526;26.534;2023-06-14T04:41:14;98868.78;;;18.49;100.00
10618;BME280;5356;43.526;26.534;2023-06-14T04:43:40;98872.03;;;18.51;100.00
10618;BME280;5356;43.526;26.534;2023-06-14T04:46:08;98859.59;;;18.50;100.00
10618;BME280;5356;43.526;26.534;2023-06-14T04:48:39;98868.72;;;18.59;100.00
10618;BME280;5356;43.526;26.534;2023-06-14T04:51:07;98880.06;;;18.56;100.00
10618;BME280;5356;43.526;26.534;2023-06-14T04:53:32;98882.16;;;18.65;100.00
10618;BME280;5356;43.526;26.534;2023-06-14T04:55:58;98880.31;;;18.60;100.00
10618;BME280;5356;43.526;26.534;2023-06-14T04:58:23;98884.06;;;18.64;100.00
10618;BME280;5356;43.526;26.534;2023-06-14T05:00:49;98880.53;;;18.69;100.00
10618;BME280;5356;43.526;26.534;2023-06-14T05:03:14;98884.84;;;18.75;100.00
10618;BME280;5356;43.526;26.534;2023-06-14T05:05:40;98882.09;;;18.80;100.00
10618;BME280;5356;43.526;26.534;2023-06-14T05:08:06;98879.09;;;18.87;100.00
10618;BME280;5356;43.526;26.534;2023-06-14T05:10:32;98892.50;;;18.97;100.00
10618;BME280;5356;43.526;26.534;2023-06-14T05:13:00;98896.75;;;19.08;100.00
10618;BME280;5356;43.526;26.534;2023-06-14T05:15:26;98895.69;;;19.04;100.00
10618;BME280;5356;43.526;26.534;2023-06-14T05:17:52;98903.50;;;19.05;100.00
10618;BME280;5356;43.526;26.534;2023-06-14T05:20:21;98893.97;;;19.13;100.00
10618;BME280;5356;43.526;26.534;2023-06-14T05:22:50;98897.13;;;19.25;100.00
10618;BME280;5356;43.526;26.534;2023-06-14T05:25:17;98910.59;;;19.31;100.00
10618;BME280;5356;43.526;26.534;2023-06-14T05:27:42;98901.09;;;19.33;100.00
10618;BME280;5356;43.526;26.534;2023-06-14T05:30:08;98905.19;;;19.31;100.00
10618;BME280;5356;43.526;26.534;2023-06-14T05:32:34;98903.22;;;19.36;100.00
10618;BME280;5356;43.526;26.534;2023-06-14T05:34:59;98900.47;;;19.41;100.00
10618;BME280;5356;43.526;26.534;2023-06-14T05:37:25;98900.34;;;19.57;100.00
10618;BME280;5356;43.526;26.534;2023-06-14T05:39:50;98904.53;;;19.73;100.00
10618;BME280;5356;43.526;26.534;2023-06-14T05:42:16;98916.28;;;19.87;100.00
10618;BME280;5356;43.526;26.534;2023-06-14T05:44:41;98909.66;;;19.99;100.00
10618;BME280;5356;43.526;26.534;2023-06-14T05:47:07;98910.09;;;20.06;100.00
10618;BME280;5356;43.526;26.534;2023-06-14T05:49:32;98904.34;;;20.12;100.00
10618;BME280;5356;43.526;26.534;2023-06-14T05:51:58;98912.38;;;20.17;100.00
10618;BME280;5356;43.526;26.534;2023-06-14T05:54:23;98910.66;;;20.27;100.00
10618;BME280;5356;43.526;26.534;2023-06-14T05:56:48;98917.09;;;20.31;100.00
10618;BME280;5356;43.526;26.534;2023-06-14T05:59:14;98915.34;;;20.40;100.00
10618;BME280;5356;43.526;26.534;2023-06-14T06:01:39;98910.41;;;20.47;100.00
10618;BME280;5356;43.526;26.534;2023-06-14T06:04:05;98917.59;;;20.57;100.00
10618;BME280;5356;43.526;26.534;2023-06-14T06:06:31;98921.63;;;20.59;100.00
10618;BME280;5356;43.526;26.534;2023-06-14T06:08:57;98917.47;;;20.67;100.00
10618;BME280;5356;43.526;26.534;2023-06-14T06:11:23;98928.22;;;20.72;100.00
10618;BME280;5356;43.526;26.534;2023-06-14T06:13:49;98921.38;;;20.75;100.00
10618;BME280;5356;43.526;26.534;2023-06-14T06:16:15;98921.38;;;20.75;100.00
10618;BME280;5356;43.526;26.534;2023-06-14T06:18:40;98925.88;;;20.84;100.00
10618;BME280;5356;43.526;26.534;2023-06-14T06:21:06;98926.22;;;20.97;100.00
10618;BME280;5356;43.526;26.534;2023-06-14T06:23:31;98926.34;;;21.05;100.00
10618;BME280;5356;43.526;26.534;2023-06-14T06:25:57;98930.81;;;21.15;100.00
10618;BME280;5356;43.526;26.534;2023-06-14T06:28:22;98929.19;;;21.14;100.00
10618;BME280;5356;43.526;26.534;2023-06-14T06:30:48;98928.03;;;21.20;100.00
10618;BME280;5356;43.526;26.534;2023-06-14T06:33:13;98936.63;;;21.22;100.00
10618;BME280;5356;43.526;26.534;2023-06-14T06:35:39;98939.00;;;21.29;100.00
10618;BME280;5356;43.526;26.534;2023-06-14T06:38:05;98938.25;;;21.42;100.00
10618;BME280;5356;43.526;26.534;2023-06-14T06:40:30;98938.94;;;21.48;100.00
10618;BME280;5356;43.526;26.534;2023-06-14T06:42:56;98935.75;;;21.46;100.00
10618;BME280;5356;43.526;26.534;2023-06-14T06:45:21;98944.28;;;21.53;100.00
10618;BME280;5356;43.526;26.534;2023-06-14T06:47:48;98939.75;;;21.48;100.00
10618;BME280;5356;43.526;26.534;2023-06-14T06:50:14;98945.09;;;21.53;100.00
10618;BME280;5356;43.526;26.534;2023-06-14T06:52:39;98944.03;;;21.68;100.00
10618;BME280;5356;43.526;26.534;2023-06-14T06:55:05;98947.44;;;21.88;100.00
10618;BME280;5356;43.526;26.534;2023-06-14T06:57:31;98948.25;;;22.02;100.00
10618;BME280;5356;43.526;26.534;2023-06-14T06:59:57;98943.16;;;22.14;100.00
10618;BME280;5356;43.526;26.534;2023-06-14T07:02:22;98940.16;;;22.30;100.00
10618;BME280;5356;43.526;26.534;2023-06-14T07:04:48;98942.88;;;22.30;100.00
10618;BME280;5356;43.526;26.534;2023-06-14T07:07:13;98932.13;;;22.25;100.00
10618;BME280;5356;43.526;26.534;2023-06-14T07:09:38;98937.84;;;22.37;100.00
10618;BME280;5356;43.526;26.534;2023-06-14T07:12:06;98937.09;;;22.59;100.00
10618;BME280;5356;43.526;26.534;2023-06-14T07:14:33;98942.63;;;22.68;100.00
10618;BME280;5356;43.526;26.534;2023-06-14T07:16:58;98944.19;;;22.82;100.00
10618;BME280;5356;43.526;26.534;2023-06-14T07:19:23;98938.50;;;22.93;100.00
10618;BME280;5356;43.526;26.534;2023-06-14T07:21:49;98944.19;;;22.96;100.00
10618;BME280;5356;43.526;26.534;2023-06-14T07:24:15;98948.88;;;23.04;100.00
10618;BME280;5356;43.526;26.534;2023-06-14T07:26:41;98948.50;;;23.20;100.00
10618;BME280;5356;43.526;26.534;2023-06-14T07:29:06;98944.59;;;23.35;100.00
10618;BME280;5356;43.526;26.534;2023-06-14T07:31:32;98942.56;;;23.40;98.30
10618;BME280;5356;43.526;26.534;2023-06-14T07:33:57;98942.47;;;23.54;98.31
10618;BME280;5356;43.526;26.534;2023-06-14T07:36:23;98936.75;;;23.56;97.79
10618;BME280;5356;43.526;26.534;2023-06-14T07:38:49;98942.66;;;23.58;96.10
10618;BME280;5356;43.526;26.534;2023-06-14T07:41:16;98933.88;;;23.61;95.22
10618;BME280;5356;43.526;26.534;2023-06-14T07:43:41;98937.53;;;23.79;94.59
10618;BME280;5356;43.526;26.534;2023-06-14T07:46:07;98932.09;;;23.79;94.59
10618;BME280;5356;43.526;26.534;2023-06-14T07:48:33;98924.66;;;24.02;95.19
10618;BME280;5356;43.526;26.534;2023-06-14T07:50:59;98929.19;;;24.15;94.40
10618;BME280;5356;43.526;26.534;2023-06-14T07:53:26;98917.53;;;24.32;94.11
10618;BME280;5356;43.526;26.534;2023-06-14T07:55:51;98922.97;;;24.32;92.51
10618;BME280;5356;43.526;26.534;2023-06-14T07:58:17;98936.50;;;24.06;91.25
10618;BME280;5356;43.526;26.534;2023-06-14T08:00:42;98928.50;;;24.01;91.64
10618;BME280;5356;43.526;26.534;2023-06-14T08:03:08;98931.88;;;24.06;92.09
10618;BME280;5356;43.526;26.534;2023-06-14T08:05:33;98933.78;;;24.14;91.67
10618;BME280;5356;43.526;26.534;2023-06-14T08:07:59;98936.41;;;24.28;91.04
10618;BME280;5356;43.526;26.534;2023-06-14T08:10:25;98943.94;;;24.40;90.53
10618;BME280;5356;43.526;26.534;2023-06-14T08:12:50;98938.88;;;24.47;89.89
10618;BME280;5356;43.526;26.534;2023-06-14T08:15:17;98945.88;;;24.39;89.99
10618;BME280;5356;43.526;26.534;2023-06-14T08:17:44;98937.06;;;24.34;90.49
10618;BME280;5356;43.526;26.534;2023-06-14T08:20:10;98937.13;;;24.51;90.20
10618;BME280;5356;43.526;26.534;2023-06-14T08:22:36;98937.28;;;24.46;89.93
10618;BME280;5356;43.526;26.534;2023-06-14T08:25:02;98949.72;;;24.38;89.19
10618;BME280;5356;43.526;26.534;2023-06-14T08:27:36;98943.03;;;24.45;87.75
10618;BME280;5356;43.526;26.534;2023-06-14T08:30:01;98947.97;;;24.42;88.11
10618;BME280;5356;43.526;26.534;2023-06-14T08:32:29;98931.53;;;24.65;86.49
10618;BME280;5356;43.526;26.534;2023-06-14T08:35:04;98941.97;;;24.72;85.25
10618;BME280;5356;43.526;26.534;2023-06-14T08:37:31;98937.97;;;24.86;85.75
10618;BME280;5356;43.526;26.534;2023-06-14T08:39:56;98937.31;;;25.07;86.21
10618;BME280;5356;43.526;26.534;2023-06-14T08:42:24;98932.84;;;25.20;85.48
10618;BME280;5356;43.526;26.534;2023-06-14T08:44:49;98931.38;;;25.14;84.75
10618;BME280;5356;43.526;26.534;2023-06-14T08:47:15;98925.75;;;25.10;83.28
10618;BME280;5356;43.526;26.534;2023-06-14T08:49:45;98931.88;;;25.16;83.52
10618;BME280;5356;43.526;26.534;2023-06-14T08:52:13;98933.78;;;25.33;83.93
10618;BME280;5356;43.526;26.534;2023-06-14T08:54:41;98926.97;;;25.56;83.58
10618;BME280;5356;43.526;26.534;2023-06-14T08:57:11;98922.44;;;25.77;81.47
10618;BME280;5356;43.526;26.534;2023-06-14T08:59:44;98921.59;;;25.94;80.24
10618;BME280;5356;43.526;26.534;2023-06-14T09:02:11;98922.41;;;25.86;78.69
10618;BME280;5356;43.526;26.534;2023-06-14T09:04:38;98924.41;;;25.68;78.34
10618;BME280;5356;43.526;26.534;2023-06-14T09:07:05;98926.97;;;25.56;77.83
10618;BME280;5356;43.526;26.534;2023-06-14T09:09:31;98928.28;;;25.50;79.24
10618;BME280;5356;43.526;26.534;2023-06-14T09:11:57;98925.72;;;25.53;79.50
10618;BME280;5356;43.526;26.534;2023-06-14T09:14:24;98941.09;;;25.58;78.55
10618;BME280;5356;43.526;26.534;2023-06-14T09:16:54;98938.19;;;25.63;78.05
10618;BME280;5356;43.526;26.534;2023-06-14T09:19:23;98931.09;;;25.88;78.60
10618;BME280;5356;43.526;26.534;2023-06-14T09:21:50;98931.81;;;26.06;77.04
10618;BME280;5356;43.526;26.534;2023-06-14T09:24:18;98932.19;;;26.26;77.53
10618;BME280;5356;43.526;26.534;2023-06-14T09:26:44;98932.94;;;26.35;75.87
10618;BME280;5356;43.526;26.534;2023-06-14T09:29:11;98924.34;;;26.45;73.13
10618;BME280;5356;43.526;26.534;2023-06-14T09:31:37;98919.69;;;26.46;73.08
10618;BME280;5356;43.526;26.534;2023-06-14T09:34:03;98923.88;;;26.43;73.63
10618;BME280;5356;43.526;26.534;2023-06-14T09:36:31;98935.09;;;26.20;72.64
10618;BME280;5356;43.526;26.534;2023-06-14T09:38:59;98928.97;;;26.24;72.78
10618;BME280;5356;43.526;26.534;2023-06-14T09:41:36;98922.53;;;26.28;73.09
10618;BME280;5356;43.526;26.534;2023-06-14T09:44:04;98929.69;;;26.41;73.04
10618;BME280;5356;43.526;26.534;2023-06-14T09:46:30;98919.69;;;26.46;70.98
10618;BME280;5356;43.526;26.534;2023-06-14T09:48:57;98922.69;;;26.61;71.29
10618;BME280;5356;43.526;26.534;2023-06-14T09:51:23;98924.19;;;26.50;71.54
10618;BME280;5356;43.526;26.534;2023-06-14T09:53:50;98926.13;;;26.41;72.46
10618;BME280;5356;43.526;26.534;2023-06-14T09:56:27;98925.16;;;26.46;72.86
10618;BME280;5356;43.526;26.534;2023-06-14T09:58:56;98933.34;;;26.46;71.73
10618;BME280;5356;43.526;26.534;2023-06-14T10:01:24;98929.81;;;26.45;71.39
10618;BME280;5356;43.526;26.534;2023-06-14T10:04:03;98923.22;;;26.46;70.96
10618;BME280;5356;43.526;26.534;2023-06-14T10:06:29;98922.38;;;26.54;71.16
10618;BME280;5356;43.526;26.534;2023-06-14T10:08:59;98923.22;;;26.46;69.83
10618;BME280;5356;43.526;26.534;2023-06-14T10:11:28;98930.59;;;26.54;70.76
10618;BME280;5356;43.526;26.534;2023-06-14T10:13:55;98924.81;;;26.56;70.18
10618;BME280;5356;43.526;26.534;2023-06-14T10:18:57;98926.81;;;26.38;67.74
10618;BME280;5356;43.526;26.534;2023-06-14T10:24:08;98917.06;;;26.28;68.11
10618;BME280;5356;43.526;26.534;2023-06-14T10:26:50;98917.69;;;26.34;68.83
10618;BME280;5356;43.526;26.534;2023-06-14T10:29:16;98928.00;;;26.49;69.32
10618;BME280;5356;43.526;26.534;2023-06-14T10:31:50;98920.00;;;26.53;68.00
10618;BME280;5356;43.526;26.534;2023-06-14T10:34:22;98915.34;;;26.53;68.09
10618;BME280;5356;43.526;26.534;2023-06-14T10:37:06;98921.28;;;26.55;67.64
10618;BME280;5356;43.526;26.534;2023-06-14T10:39:37;98916.44;;;26.52;67.04
10618;BME280;5356;43.526;26.534;2023-06-14T10:42:03;98905.06;;;26.71;66.47
10618;BME280;5356;43.526;26.534;2023-06-14T10:47:01;98905.31;;;26.99;64.79
10618;BME280;5356;43.526;26.534;2023-06-14T10:52:28;98904.19;;;26.79;64.92
10618;BME280;5356;43.526;26.534;2023-06-14T10:55:13;98909.72;;;26.92;65.64
10618;BME280;5356;43.526;26.534;2023-06-14T10:58:01;98914.66;;;26.77;64.66
10618;BME280;5356;43.526;26.534;2023-06-14T11:00:29;98908.53;;;26.80;64.50
10618;BME280;5356;43.526;26.534;2023-06-14T11:03:31;98912.06;;;26.81;64.59
10618;BME280;5356;43.526;26.534;2023-06-14T11:06:12;98908.94;;;26.70;65.61
10618;BME280;5356;43.526;26.534;2023-06-14T11:11:08;98914.75;;;26.90;66.81
10618;BME280;5356;43.526;26.534;2023-06-14T11:13:37;98905.72;;;26.89;66.98
10618;BME280;5356;43.526;26.534;2023-06-14T11:16:10;98913.59;;;26.91;66.43
10618;BME280;5356;43.526;26.534;2023-06-14T11:18:37;98910.88;;;26.70;64.71
10618;BME280;5356;43.526;26.534;2023-06-14T11:21:02;98908.41;;;26.77;64.64
10618;BME280;5356;43.526;26.534;2023-06-14T11:23:28;98914.19;;;26.96;65.74
10618;BME280;5356;43.526;26.534;2023-06-14T11:25:53;98913.72;;;26.94;65.88
10618;BME280;5356;43.526;26.534;2023-06-14T11:28:19;98919.06;;;26.91;66.45
10618;BME280;5356;43.526;26.534;2023-06-14T11:30:47;98910.13;;;26.81;65.40
10618;BME280;5356;43.526;26.534;2023-06-14T11:33:17;98910.22;;;26.73;66.00
10618;BME280;5356;43.526;26.534;2023-06-14T11:35:43;98906.25;;;26.82;66.67
10618;BME280;5356;43.526;26.534;2023-06-14T11:38:09;98907.53;;;26.85;65.33
10618;BME280;5356;43.526;26.534;2023-06-14T11:40:37;98905.66;;;26.77;64.60
10618;BME280;5356;43.526;26.534;2023-06-14T11:43:03;98905.19;;;26.75;65.64
10618;BME280;5356;43.526;26.534;2023-06-14T11:45:30;98915.25;;;26.83;65.37
10618;BME280;5356;43.526;26.534;2023-06-14T11:47:57;98914.59;;;26.65;64.14
10618;BME280;5356;43.526;26.534;2023-06-14T11:50:23;98903.28;;;26.75;64.56
10618;BME280;5356;43.526;26.534;2023-06-14T11:52:53;98912.44;;;26.92;64.33
10618;BME280;5356;43.526;26.534;2023-06-14T11:55:20;98908.50;;;27.01;65.30
10618;BME280;5356;43.526;26.534;2023-06-14T11:57:46;98906.03;;;27.08;65.43
10618;BME280;5356;43.526;26.534;2023-06-14T12:00:12;98894.75;;;27.10;65.91
10618;BME280;5356;43.526;26.534;2023-06-14T12:02:38;98894.09;;;27.13;65.15
10618;BME280;5356;43.526;26.534;2023-06-14T12:05:06;98895.88;;;27.09;65.15
10618;BME280;5356;43.526;26.534;2023-06-14T12:07:38;98889.28;;;27.10;65.35
10618;BME280;5356;43.526;26.534;2023-06-14T12:10:08;98891.56;;;27.08;65.77
10618;BME280;5356;43.526;26.534;2023-06-14T12:12:38;98893.44;;;27.16;65.61
10618;BME280;5356;43.526;26.534;2023-06-14T12:15:05;98884.94;;;27.42;65.88
10618;BME280;5356;43.526;26.534;2023-06-14T12:17:35;98881.78;;;27.52;65.34
10618;BME280;5356;43.526;26.534;2023-06-14T12:20:19;98881.88;;;27.44;64.24
10618;BME280;5356;43.526;26.534;2023-06-14T12:22:57;98887.00;;;27.33;63.41
10618;BME280;5356;43.526;26.534;2023-06-14T12:25:26;98883.09;;;27.22;64.33
10618;BME280;5356;43.526;26.534;2023-06-14T12:27:53;98891.28;;;27.22;64.64
10618;BME280;5356;43.526;26.534;2023-06-14T12:30:19;98894.69;;;27.19;63.96
10618;BME280;5356;43.526;26.534;2023-06-14T12:32:45;98884.16;;;27.08;64.08
10618;BME280;5356;43.526;26.534;2023-06-14T12:35:10;98884.22;;;27.00;63.52
10618;BME280;5356;43.526;26.534;2023-06-14T12:37:36;98874.84;;;26.88;63.69
10618;BME280;5356;43.526;26.534;2023-06-14T12:40:06;98871.47;;;26.71;63.52
10618;BME280;5356;43.526;26.534;2023-06-14T12:42:32;98872.16;;;26.68;64.18
10618;BME280;5356;43.526;26.534;2023-06-14T12:45:00;98880.59;;;26.75;64.63
10618;BME280;5356;43.526;26.534;2023-06-14T12:47:25;98864.00;;;26.80;64.88
10618;BME280;5356;43.526;26.534;2023-06-14T12:49:52;98866.94;;;26.75;65.19
10618;BME280;5356;43.526;26.534;2023-06-14T12:52:17;98865.22;;;26.70;64.99
10618;BME280;5356;43.526;26.534;2023-06-14T12:54:43;98870.53;;;26.67;65.57
10618;BME280;5356;43.526;26.534;2023-06-14T12:57:08;98863.88;;;26.76;65.93
10618;BME280;5356;43.526;26.534;2023-06-14T12:59:35;98871.19;;;26.84;66.29
10618;BME280;5356;43.526;26.534;2023-06-14T13:02:13;98871.59;;;26.74;64.43
10618;BME280;5356;43.526;26.534;2023-06-14T13:04:39;98868.38;;;26.72;65.32
10618;BME280;5356;43.526;26.534;2023-06-14T13:07:05;98859.28;;;26.68;65.06
10618;BME280;5356;43.526;26.534;2023-06-14T13:09:30;98861.88;;;26.64;64.65
10618;BME280;5356;43.526;26.534;2023-06-14T13:11:56;98860.28;;;26.63;64.33